Аэропорт: Абакан. Абакан

ICAO: UNAA

METAR:
2019/05/25 20:00
UNAA 252000Z 00000MPS CAVOK 06/01 Q1010 R20/090065 NOSIG RMK QFE735
METAR:
2019/05/25 18:22
TAF UNAA 251658Z 2518/2618 17003G10MPS CAVOK 
     FM260600 24005G12MPS 9999 SCT025CB 
      TEMPO 2609/2615 26010G17MPS 5000 -TSRA BKN015CB 
      BECMG 2615/2616 30003G08MPS